Time;durP1;ratioP1;P1;durP2;ratioP2;P2;SDS_P1;SDS_P2;PMS_P1;PMS_P2;Temp;Humidity;BMP_temperature;BMP_pressure;BME280_temperature;BME280_humidity;BME280_pressure;Samples;Min_cycle;Max_cycle;Signal;HPM_P1;HPM_P2
2022/11/18 00:00:47;;;;;;;28.10;19.67;;;7.30;99.90;;;;;;5055142;28;20060;-61
2022/11/18 00:03:13;;;;;;;26.63;18.63;;;6.90;99.90;;;;;;5055152;28;20041;-62
2022/11/18 00:05:39;;;;;;;28.38;18.63;;;6.90;99.90;;;;;;5055173;28;20086;-62
2022/11/18 00:08:04;;;;;;;27.83;20.42;;;7.30;99.90;;;;;;5055013;28;20045;-62
2022/11/18 00:10:30;;;;;;;26.10;19.55;;;6.90;99.90;;;;;;5054612;28;20045;-60
2022/11/18 00:15:40;;;;;;;28.08;19.30;;;6.90;99.90;;;;;;5054747;28;20063;-62
2022/11/18 00:18:06;;;;;;;29.33;20.10;;;6.90;99.90;;;;;;5054028;28;20036;-62
2022/11/18 00:20:33;;;;;;;26.45;18.42;;;6.90;99.90;;;;;;5054618;28;20052;-62
2022/11/18 00:22:59;;;;;;;29.50;20.02;;;7.30;99.90;;;;;;5054984;28;20048;-62
2022/11/18 00:25:25;;;;;;;29.05;18.75;;;7.20;99.90;;;;;;5054530;28;20171;-62
2022/11/18 00:27:51;;;;;;;28.38;19.70;;;6.90;99.90;;;;;;5054647;28;20049;-62
2022/11/18 00:30:17;;;;;;;27.33;19.83;;;7.20;99.90;;;;;;5054278;28;20044;-61
2022/11/18 00:32:43;;;;;;;28.15;18.55;;;7.30;99.90;;;;;;5054568;28;20044;-62
2022/11/18 00:35:09;;;;;;;26.67;19.67;;;7.30;99.90;;;;;;5054327;28;20044;-61
2022/11/18 00:37:35;;;;;;;27.27;19.40;;;7.00;99.90;;;;;;5054261;28;20037;-62
2022/11/18 00:40:01;;;;;;;26.17;18.77;;;7.00;99.90;;;;;;5054280;28;20128;-62
2022/11/18 00:45:10;;;;;;;26.42;19.50;;;7.20;99.90;;;;;;5054280;28;20060;-62
2022/11/18 00:47:36;;;;;;;27.35;18.40;;;7.30;99.90;;;;;;5054419;28;20041;-63
2022/11/18 00:50:02;;;;;;;28.85;19.40;;;7.30;99.90;;;;;;5052567;28;20051;-62
2022/11/18 00:52:27;;;;;;;26.08;18.23;;;6.90;99.90;;;;;;5053813;28;20052;-62
2022/11/18 00:54:53;;;;;;;25.63;18.83;;;7.20;99.90;;;;;;5054030;28;20400;-62
2022/11/18 00:57:18;;;;;;;25.20;17.90;;;7.20;99.90;;;;;;5054021;28;20037;-63
2022/11/18 00:59:44;;;;;;;26.90;18.13;;;7.20;99.90;;;;;;5053727;28;20083;-62
2022/11/18 01:02:10;;;;;;;25.98;18.02;;;7.30;99.90;;;;;;5054015;28;20076;-62
2022/11/18 01:04:35;;;;;;;24.13;17.75;;;7.20;99.90;;;;;;5053902;28;20136;-62
2022/11/18 01:07:01;;;;;;;25.92;17.13;;;7.40;99.90;;;;;;5054152;28;20120;-62
2022/11/18 01:09:27;;;;;;;28.17;18.33;;;7.10;99.90;;;;;;5053898;28;20047;-62
2022/11/18 01:14:37;;;;;;;25.92;17.30;;;7.10;99.90;;;;;;5053732;28;20047;-62
2022/11/18 01:17:02;;;;;;;27.05;19.17;;;7.30;99.90;;;;;;5052452;28;20040;-62
2022/11/18 01:19:28;;;;;;;26.75;18.05;;;6.90;99.90;;;;;;5053331;28;20222;-62
2022/11/18 01:21:55;;;;;;;27.25;19.52;;;7.00;99.90;;;;;;5053944;28;20049;-62
2022/11/18 01:24:21;;;;;;;30.35;19.70;;;7.30;99.90;;;;;;5053921;28;20047;-61
2022/11/18 01:26:47;;;;;;;30.50;20.20;;;7.20;99.90;;;;;;5053635;28;20033;-62
2022/11/18 01:29:12;;;;;;;32.67;20.75;;;6.90;99.90;;;;;;5052275;28;20067;-62
2022/11/18 01:31:38;;;;;;;30.75;20.52;;;7.20;99.90;;;;;;5053384;28;20120;-62
2022/11/18 01:34:04;;;;;;;29.75;20.25;;;7.30;99.90;;;;;;5052503;28;20033;-62
2022/11/18 01:36:30;;;;;;;32.15;21.23;;;7.10;99.90;;;;;;5053148;28;20087;-62
2022/11/18 01:38:56;;;;;;;34.47;21.23;;;7.10;99.90;;;;;;5053446;28;20053;-62
2022/11/18 01:41:25;;;;;;;33.70;21.10;;;6.90;99.90;;;;;;5053401;28;20037;-62
2022/11/18 01:44:01;;;;;;;33.60;21.13;;;7.20;99.90;;;;;;5053549;28;20044;-62
2022/11/18 01:46:29;;;;;;;33.38;21.83;;;7.10;99.90;;;;;;5052997;28;20044;-62
2022/11/18 01:49:03;;;;;;;36.47;22.67;;;7.30;99.90;;;;;;5053123;28;20057;-63
2022/11/18 01:51:43;;;;;;;38.45;24.23;;;6.90;99.90;;;;;;5051431;28;20567;-61
2022/11/18 01:54:15;;;;;;;41.88;23.55;;;6.90;99.90;;;;;;5053278;28;20037;-62
2022/11/18 01:56:51;;;;;;;40.08;22.45;;;7.20;99.90;;;;;;5051741;28;20079;-62
2022/11/18 01:59:21;;;;;;;41.83;23.85;;;6.80;99.90;;;;;;5052803;28;20051;-62
2022/11/18 02:01:47;;;;;;;36.67;23.10;;;7.20;99.90;;;;;;5052777;28;20048;-62
2022/11/18 02:04:13;;;;;;;39.85;23.17;;;7.20;99.90;;;;;;5052878;28;20053;-62
2022/11/18 02:06:44;;;;;;;39.35;22.13;;;6.90;99.90;;;;;;5052728;28;20429;-62
2022/11/18 02:09:11;;;;;;;42.70;24.13;;;6.90;99.90;;;;;;5052616;28;20077;-62
2022/11/18 02:11:55;;;;;;;43.13;24.92;;;7.10;99.90;;;;;;5052856;28;20043;-62
2022/11/18 02:14:33;;;;;;;38.58;23.45;;;7.20;99.90;;;;;;5052762;28;20072;-62
2022/11/18 02:17:24;;;;;;;41.45;24.20;;;6.90;99.90;;;;;;5052594;28;20045;-63
2022/11/18 02:20:15;;;;;;;38.83;22.60;;;7.00;99.90;;;;;;5052903;28;20135;-62
2022/11/18 02:23:27;;;;;;;36.60;22.10;;;6.90;99.90;;;;;;5051503;28;20045;-62
2022/11/18 02:26:30;;;;;;;42.22;22.55;;;7.20;99.90;;;;;;5051252;28;20048;-62
2022/11/18 02:29:12;;;;;;;38.80;22.08;;;6.80;99.90;;;;;;5052445;28;20076;-62
2022/11/18 02:31:52;;;;;;;35.27;21.93;;;7.10;99.90;;;;;;5052182;28;20044;-61
2022/11/18 02:34:40;;;;;;;34.97;21.17;;;6.80;99.90;;;;;;5052300;28;20325;-62
2022/11/18 02:37:21;;;;;;;39.90;22.58;;;6.80;99.90;;;;;;5052117;28;20044;-62
2022/11/18 02:39:56;;;;;;;39.37;22.03;;;6.80;99.90;;;;;;5052197;28;20076;-62
2022/11/18 02:42:25;;;;;;;42.80;23.05;;;6.70;99.90;;;;;;5052179;28;20048;-62
2022/11/18 02:44:57;;;;;;;40.97;22.48;;;6.70;99.90;;;;;;5052278;28;20110;-62
2022/11/18 02:47:24;;;;;;;;;;;6.70;99.90;;;;;;5052529;28;20041;-63
2022/11/18 02:50:03;;;;;;;33.90;19.33;;;7.10;99.90;;;;;;5051664;28;19932;-62
2022/11/18 02:52:32;;;;;;;36.25;21.77;;;6.80;99.90;;;;;;5051823;28;20139;-62
2022/11/18 02:55:00;;;;;;;37.97;20.27;;;7.10;99.90;;;;;;5050814;28;20452;-62
2022/11/18 02:57:29;;;;;;;38.78;21.45;;;6.70;99.90;;;;;;5052178;28;20057;-62
2022/11/18 02:59:54;;;;;;;35.15;21.85;;;7.00;99.90;;;;;;5050876;28;20064;-62
2022/11/18 03:02:21;;;;;;;40.83;22.17;;;6.90;99.90;;;;;;5051888;28;20052;-62
2022/11/18 03:04:50;;;;;;;33.55;20.25;;;6.80;99.90;;;;;;5051928;28;20041;-62
2022/11/18 03:07:26;;;;;;;37.10;21.88;;;6.90;99.90;;;;;;5051938;28;20044;-62
2022/11/18 03:09:52;;;;;;;35.35;21.20;;;6.60;99.90;;;;;;5051755;28;20119;-61
2022/11/18 03:12:53;;;;;;;40.03;22.58;;;6.60;99.90;;;;;;5051961;28;20048;-62
2022/11/18 03:15:54;;;;;;;38.53;20.92;;;6.70;99.90;;;;;;5051944;28;20106;-62
2022/11/18 03:18:27;;;;;;;37.38;21.30;;;6.90;99.90;;;;;;5050653;28;20102;-62
2022/11/18 03:21:02;;;;;;;36.15;19.60;;;6.80;99.90;;;;;;5052073;28;20041;-62
2022/11/18 03:23:34;;;;;;;39.72;21.02;;;6.60;99.90;;;;;;5051810;28;20033;-62
2022/11/18 03:26:10;;;;;;;35.22;20.02;;;6.60;99.90;;;;;;5051722;28;20041;-62
2022/11/18 03:28:43;;;;;;;30.85;18.50;;;6.80;99.90;;;;;;5051781;28;20393;-61
2022/11/18 03:31:21;;;;;;;29.02;17.70;;;6.90;99.90;;;;;;5051698;28;20090;-62
2022/11/18 03:33:53;;;;;;;31.02;17.23;;;7.00;99.90;;;;;;5050624;28;20678;-62
2022/11/18 03:36:23;;;;;;;27.15;16.83;;;7.00;99.90;;;;;;5051618;28;20090;-63
2022/11/18 03:38:57;;;;;;;26.50;16.58;;;6.90;99.90;;;;;;5051564;28;20167;-61
2022/11/18 03:41:25;;;;;;;26.17;16.60;;;6.90;99.90;;;;;;5051661;28;20531;-61
2022/11/18 03:44:03;;;;;;;31.05;17.35;;;6.90;99.90;;;;;;5050217;28;20048;-62
2022/11/18 03:46:38;;;;;;;28.33;17.63;;;6.70;99.90;;;;;;5051495;28;20045;-62
2022/11/18 03:49:08;;;;;;;26.35;16.42;;;6.50;99.90;;;;;;5051703;28;20076;-62
2022/11/18 03:52:01;;;;;;;24.80;15.57;;;6.50;99.90;;;;;;5049850;28;20115;-62
2022/11/18 03:54:30;;;;;;;24.08;15.63;;;6.60;99.90;;;;;;5050762;28;20120;-62
2022/11/18 03:57:01;;;;;;;26.40;15.43;;;6.80;99.90;;;;;;5055058;28;20037;-63
2022/11/18 03:59:41;;;;;;;30.48;17.33;;;6.90;99.90;;;;;;5055373;28;20044;-60
2022/11/18 04:02:13;;;;;;;24.92;15.02;;;6.80;99.90;;;;;;5055290;28;20421;-62
2022/11/18 04:04:41;;;;;;;22.67;14.88;;;6.80;99.90;;;;;;5055153;28;20048;-62
2022/11/18 04:07:13;;;;;;;27.13;15.80;;;6.90;99.90;;;;;;5054964;28;20052;-62
2022/11/18 04:09:46;;;;;;;25.65;15.70;;;6.60;99.90;;;;;;5055024;28;20048;-62
2022/11/18 04:12:17;;;;;;;25.80;16.55;;;6.80;99.90;;;;;;5054732;28;20037;-62
2022/11/18 04:14:46;;;;;;;25.05;15.75;;;6.40;99.90;;;;;;5054804;28;20041;-61
2022/11/18 04:17:18;;;;;;;24.67;15.60;;;6.50;99.90;;;;;;5055031;28;20037;-62
2022/11/18 04:19:44;;;;;;;21.92;14.27;;;6.50;99.90;;;;;;5054794;28;20063;-62
2022/11/18 04:22:10;;;;;;;23.70;14.95;;;6.60;99.90;;;;;;5054645;28;20041;-62
2022/11/18 04:24:36;;;;;;;25.40;13.98;;;6.60;99.90;;;;;;5054793;28;20135;-61
2022/11/18 04:27:03;;;;;;;23.65;14.63;;;6.80;99.90;;;;;;5054854;28;20072;-62
2022/11/18 04:29:30;;;;;;;21.45;13.48;;;6.50;99.90;;;;;;5054478;28;20525;-62
2022/11/18 04:31:55;;;;;;;26.35;14.30;;;6.70;99.90;;;;;;5054830;28;20108;-63
2022/11/18 04:34:21;;;;;;;25.27;15.18;;;6.80;99.90;;;;;;5054565;28;20194;-61
2022/11/18 04:36:47;;;;;;;25.23;13.93;;;6.60;99.90;;;;;;5054344;28;20045;-62
2022/11/18 04:39:13;;;;;;;25.10;14.80;;;6.60;99.90;;;;;;5054415;28;20166;-62
2022/11/18 04:41:56;;;;;;;23.85;15.00;;;6.80;99.90;;;;;;5054284;28;20037;-63
2022/11/18 04:44:26;;;;;;;26.27;14.32;;;6.80;99.90;;;;;;5054163;28;20048;-63
2022/11/18 04:46:52;;;;;;;24.65;13.68;;;6.80;99.90;;;;;;5054193;28;20089;-62
2022/11/18 04:49:18;;;;;;;21.38;13.07;;;6.80;99.90;;;;;;5052933;28;20048;-62
2022/11/18 04:51:44;;;;;;;24.50;14.88;;;6.80;99.90;;;;;;5054124;28;20477;-62
2022/11/18 04:54:11;;;;;;;24.13;14.60;;;6.60;99.90;;;;;;5053815;28;20085;-61
2022/11/18 04:56:37;;;;;;;21.65;14.13;;;6.60;99.90;;;;;;5053907;28;20089;-62
2022/11/18 04:59:04;;;;;;;20.23;13.07;;;6.80;99.90;;;;;;5053966;28;20045;-61
2022/11/18 05:01:30;;;;;;;21.20;13.68;;;6.60;99.90;;;;;;5054103;28;20103;-61
2022/11/18 05:03:56;;;;;;;19.05;13.52;;;6.60;99.90;;;;;;5053714;28;20504;-62
2022/11/18 05:06:22;;;;;;;22.70;14.57;;;6.80;99.90;;;;;;5053951;28;20392;-62
2022/11/18 05:08:48;;;;;;;23.80;14.13;;;6.60;99.90;;;;;;5052655;28;20041;-62
2022/11/18 05:13:58;;;;;;;20.55;14.25;;;6.80;99.90;;;;;;5053637;28;20477;-62
2022/11/18 05:16:24;;;;;;;19.73;13.18;;;6.70;99.90;;;;;;5053771;28;20045;-62
2022/11/18 05:18:49;;;;;;;21.83;13.55;;;6.60;99.90;;;;;;5053650;28;20045;-62
2022/11/18 05:21:16;;;;;;;23.95;14.95;;;6.70;99.90;;;;;;5052642;28;20473;-62
2022/11/18 05:23:42;;;;;;;21.92;13.90;;;6.80;99.90;;;;;;5053505;28;20037;-62
2022/11/18 05:26:10;;;;;;;21.10;12.80;;;6.40;99.90;;;;;;5053805;28;20048;-61
2022/11/18 05:28:36;;;;;;;20.73;12.70;;;6.50;99.90;;;;;;5052119;28;20044;-62
2022/11/18 05:31:13;;;;;;;21.08;12.73;;;6.50;99.90;;;;;;5053332;28;20090;-60
2022/11/18 05:33:40;;;;;;;21.48;13.32;;;6.60;99.90;;;;;;5053450;28;20384;-62
2022/11/18 05:36:08;;;;;;;20.65;14.13;;;6.50;99.90;;;;;;5052044;28;20051;-62
2022/11/18 05:38:34;;;;;;;19.60;12.52;;;6.40;99.90;;;;;;5053155;28;20091;-62
2022/11/18 05:41:00;;;;;;;21.98;14.00;;;6.40;99.90;;;;;;5053312;28;20083;-63
2022/11/18 05:43:27;;;;;;;24.42;14.32;;;6.30;99.90;;;;;;5053078;28;20657;-62
2022/11/18 05:45:52;;;;;;;23.02;13.13;;;6.70;99.90;;;;;;5053136;28;20083;-62
2022/11/18 05:48:18;;;;;;;20.95;12.85;;;6.70;99.90;;;;;;5053171;28;20439;-61
2022/11/18 05:50:49;;;;;;;21.23;13.00;;;6.60;99.90;;;;;;5051740;28;20068;-62
2022/11/18 05:53:16;;;;;;;21.67;13.02;;;6.60;99.90;;;;;;5052470;28;20535;-62
2022/11/18 05:56:09;;;;;;;21.77;13.65;;;6.50;99.90;;;;;;5052896;28;20048;-62
2022/11/18 05:58:34;;;;;;;20.80;12.35;;;6.50;99.90;;;;;;5052650;28;20064;-61
2022/11/18 06:01:04;;;;;;;23.83;13.32;;;6.50;99.90;;;;;;5052821;28;20047;-62
2022/11/18 06:03:34;;;;;;;23.23;14.45;;;6.40;99.90;;;;;;5051399;28;20128;-62
2022/11/18 06:06:02;;;;;;;21.70;13.82;;;6.50;99.90;;;;;;5052675;28;20044;-61
2022/11/18 06:08:35;;;;;;;22.63;13.70;;;6.50;99.90;;;;;;5052358;28;20048;-61
2022/11/18 06:11:01;;;;;;;26.40;13.85;;;6.30;99.90;;;;;;5051986;28;20044;-59
2022/11/18 06:13:36;;;;;;;24.45;13.48;;;6.40;99.90;;;;;;5052299;28;20483;-61
2022/11/18 06:16:02;;;;;;;23.40;13.20;;;6.50;99.90;;;;;;5051431;28;20108;-60
2022/11/18 06:18:30;;;;;;;26.95;14.85;;;6.40;99.90;;;;;;5051956;28;20055;-62
2022/11/18 06:21:00;;;;;;;24.25;14.73;;;6.50;99.90;;;;;;5051733;28;20039;-62
2022/11/18 06:23:28;;;;;;;21.67;12.52;;;6.50;99.90;;;;;;5051710;28;20044;-62
2022/11/18 06:25:54;;;;;;;25.58;13.52;;;6.20;99.90;;;;;;5051559;28;20141;-60
2022/11/18 06:28:21;;;;;;;24.52;13.25;;;6.50;99.90;;;;;;5051097;28;20553;-62
2022/11/18 06:30:47;;;;;;;23.50;12.68;;;6.60;99.90;;;;;;5050755;28;20108;-63
2022/11/18 06:59:43;;;;;;;27.17;12.57;;;6.30;99.90;;;;;;5088197;28;20171;-61
2022/11/18 07:02:09;;;;;;;25.92;13.15;;;6.30;99.90;;;;;;5088999;28;20069;-61
2022/11/18 07:04:38;;;;;;;23.90;13.40;;;6.20;99.90;;;;;;5088939;28;20051;-61
2022/11/18 07:07:05;;;;;;;28.13;13.32;;;6.50;99.90;;;;;;5088723;28;20040;-61
2022/11/18 07:09:30;;;;;;;25.83;13.73;;;6.50;99.90;;;;;;5089034;28;20056;-62
2022/11/18 07:11:56;;;;;;;28.67;14.65;;;6.20;99.90;;;;;;5088650;28;20036;-61
2022/11/18 07:14:22;;;;;;;29.25;14.77;;;6.10;99.90;;;;;;5087075;28;20044;-62
2022/11/18 07:16:47;;;;;;;27.63;14.50;;;6.40;99.90;;;;;;5088183;28;20044;-62
2022/11/18 07:19:13;;;;;;;25.17;13.05;;;6.10;99.90;;;;;;5088347;28;20043;-62
2022/11/18 07:21:40;;;;;;;25.67;13.80;;;6.20;99.90;;;;;;5088276;28;20033;-62
2022/11/18 07:24:07;;;;;;;26.50;14.73;;;6.40;99.90;;;;;;5088568;28;20115;-62
2022/11/18 07:26:34;;;;;;;26.73;13.73;;;6.30;99.90;;;;;;5088338;28;20107;-62
2022/11/18 07:29:00;;;;;;;25.25;13.90;;;6.40;99.90;;;;;;5068129;28;20043;-62
2022/11/18 07:31:25;;;;;;;24.77;14.02;;;6.40;99.90;;;;;;5061522;28;20404;-61
2022/11/18 07:33:53;;;;;;;27.65;13.23;;;6.40;99.90;;;;;;5055965;28;20067;-61
2022/11/18 07:36:21;;;;;;;28.85;13.85;;;6.30;99.90;;;;;;5056513;28;20044;-61
2022/11/18 07:38:47;;;;;;;27.23;15.70;;;6.40;99.90;;;;;;5056994;28;20037;-62
2022/11/18 07:41:16;;;;;;;24.77;13.30;;;6.40;99.90;;;;;;5039172;28;20450;-62
2022/11/18 07:43:42;;;;;;;30.33;13.88;;;6.20;99.90;;;;;;5056691;28;20473;-62
2022/11/18 07:46:17;;;;;;;30.73;14.95;;;6.30;99.90;;;;;;5057138;28;20044;-62
2022/11/18 07:48:44;;;;;;;28.10;14.73;;;6.40;99.90;;;;;;5059344;28;20087;-62
2022/11/18 07:51:11;;;;;;;28.40;15.05;;;6.20;99.90;;;;;;5067592;28;20045;-62
2022/11/18 07:53:37;;;;;;;33.60;15.18;;;6.30;99.90;;;;;;5067269;28;20131;-61
2022/11/18 07:56:03;;;;;;;29.55;14.10;;;6.10;99.90;;;;;;5066098;28;20116;-62
2022/11/18 07:58:29;;;;;;;26.60;15.80;;;6.20;99.90;;;;;;5076833;28;20522;-62
2022/11/18 08:00:55;;;;;;;29.67;15.88;;;6.20;99.90;;;;;;5087608;28;20076;-62
2022/11/18 08:03:27;;;;;;;28.30;15.88;;;6.10;99.90;;;;;;5087783;28;20078;-61
2022/11/18 08:06:00;;;;;;;27.40;13.32;;;6.30;99.90;;;;;;5087795;28;20040;-61
2022/11/18 08:08:27;;;;;;;27.83;14.30;;;6.20;99.90;;;;;;5087790;28;20044;-62
2022/11/18 08:11:00;;;;;;;25.35;14.68;;;6.10;99.90;;;;;;5075338;28;20033;-62
2022/11/18 08:13:26;;;;;;;26.13;13.18;;;6.10;99.90;;;;;;5074196;28;20048;-61
2022/11/18 08:15:52;;;;;;;28.17;13.80;;;6.30;99.90;;;;;;5055920;28;20048;-61
2022/11/18 08:18:18;;;;;;;28.75;16.33;;;6.40;99.90;;;;;;5073264;28;20113;-61
2022/11/18 08:20:45;;;;;;;31.40;15.85;;;6.30;99.90;;;;;;5073458;28;20051;-62
2022/11/18 08:23:11;;;;;;;28.10;14.85;;;6.40;99.90;;;;;;5073231;28;20037;-62
2022/11/18 08:25:37;;;;;;;28.80;15.50;;;6.10;99.90;;;;;;5073130;28;20044;-62
2022/11/18 08:28:03;;;;;;;27.40;14.85;;;6.30;99.90;;;;;;5073367;28;20054;-62
2022/11/18 08:30:28;;;;;;;27.88;14.05;;;6.30;99.90;;;;;;5066092;28;20079;-63
2022/11/18 08:32:54;;;;;;;22.70;13.20;;;6.30;99.90;;;;;;5065402;28;20041;-62
2022/11/18 08:35:20;;;;;;;24.98;13.32;;;6.30;99.90;;;;;;5062855;28;20051;-62
2022/11/18 08:37:46;;;;;;;24.40;13.85;;;6.20;99.90;;;;;;5053264;28;20048;-62
2022/11/18 08:40:12;;;;;;;23.02;13.70;;;6.10;99.90;;;;;;5070378;28;20033;-61
2022/11/18 08:42:37;;;;;;;25.58;13.50;;;6.20;99.90;;;;;;5061801;28;20091;-62
2022/11/18 08:45:09;;;;;;;23.10;12.70;;;6.40;99.90;;;;;;5044358;28;20036;-63
2022/11/18 08:47:36;;;;;;;23.98;13.45;;;6.40;99.90;;;;;;5058065;28;20052;-62
2022/11/18 08:50:07;;;;;;;27.13;15.00;;;6.30;99.90;;;;;;5060749;28;20036;-61
2022/11/18 08:52:33;;;;;;;23.52;13.73;;;6.30;99.90;;;;;;5043728;28;20084;-62
2022/11/18 08:54:59;;;;;;;24.42;13.30;;;6.30;99.90;;;;;;5060991;28;20067;-62
2022/11/18 08:57:24;;;;;;;24.95;13.57;;;6.20;99.90;;;;;;5062878;28;20044;-62
2022/11/18 08:59:50;;;;;;;25.23;14.25;;;6.40;99.90;;;;;;5072503;28;20040;-62
2022/11/18 09:02:19;;;;;;;24.05;13.80;;;6.30;99.90;;;;;;5072864;28;20439;-63
2022/11/18 09:04:52;;;;;;;25.38;14.85;;;6.20;99.90;;;;;;5072772;28;20036;-62
2022/11/18 09:07:19;;;;;;;24.05;13.38;;;6.20;99.90;;;;;;5072363;28;20032;-62
2022/11/18 09:09:44;;;;;;;27.20;14.65;;;6.20;99.90;;;;;;5072486;28;20488;-62
2022/11/18 09:12:13;;;;;;;25.48;14.25;;;6.40;99.90;;;;;;5072733;28;20070;-62
2022/11/18 09:14:41;;;;;;;26.13;15.20;;;6.20;99.90;;;;;;5072433;28;20044;-62
2022/11/18 09:17:07;;;;;;;25.25;13.38;;;6.40;99.90;;;;;;5054795;28;20380;-62
2022/11/18 09:19:33;;;;;;;21.73;13.15;;;6.30;99.90;;;;;;5072132;28;20048;-61
2022/11/18 09:21:58;;;;;;;24.63;13.60;;;6.20;99.90;;;;;;5071343;28;20036;-62
2022/11/18 09:24:24;;;;;;;24.20;13.20;;;6.20;99.90;;;;;;5072489;28;20071;-61
2022/11/18 09:26:52;;;;;;;22.10;13.38;;;6.40;99.90;;;;;;5072222;28;20069;-62
2022/11/18 09:29:18;;;;;;;23.63;13.93;;;6.40;99.90;;;;;;5054653;28;20170;-62
2022/11/18 09:31:44;;;;;;;24.92;13.70;;;6.40;99.90;;;;;;5054116;28;20115;-62
2022/11/18 09:34:10;;;;;;;23.90;14.50;;;6.40;99.90;;;;;;5072280;28;20111;-62
2022/11/18 09:36:36;;;;;;;24.00;14.77;;;6.40;99.90;;;;;;5071728;28;20048;-62
2022/11/18 09:39:02;;;;;;;25.58;13.63;;;6.20;99.90;;;;;;5065123;28;20029;-61
2022/11/18 09:41:51;;;;;;;23.70;13.10;;;6.20;99.90;;;;;;5060893;28;20040;-61
2022/11/18 09:44:29;;;;;;;24.60;14.50;;;6.40;99.90;;;;;;5060406;28;20099;-62
2022/11/18 09:47:27;;;;;;;24.00;14.25;;;6.20;99.90;;;;;;5060358;28;20049;-61
2022/11/18 09:50:02;;;;;;;25.15;13.95;;;6.40;99.90;;;;;;5044418;28;20117;-61
2022/11/18 09:52:37;;;;;;;23.10;14.05;;;6.30;99.90;;;;;;5043901;28;20048;-62
2022/11/18 09:55:14;;;;;;;27.80;14.40;;;6.40;99.90;;;;;;5043354;28;20551;-61
2022/11/18 09:57:45;;;;;;;21.27;12.20;;;6.40;99.90;;;;;;5061427;28;20416;-62
2022/11/18 10:00:19;;;;;;;21.67;13.35;;;6.50;99.90;;;;;;5062038;28;20048;-62
2022/11/18 10:02:59;;;;;;;25.40;13.82;;;6.50;99.90;;;;;;5061469;28;20036;-62
2022/11/18 10:05:52;;;;;;;25.65;14.82;;;6.40;99.90;;;;;;5060925;28;20045;-63
2022/11/18 10:08:24;;;;;;;24.33;13.18;;;6.50;99.90;;;;;;5030638;28;20485;-62
2022/11/18 10:10:53;;;;;;;26.48;14.88;;;6.30;99.90;;;;;;5065513;28;20062;-62
2022/11/18 10:13:26;;;;;;;22.83;13.15;;;6.30;99.90;;;;;;5060576;28;20048;-62
2022/11/18 10:16:10;;;;;;;22.63;13.15;;;6.10;99.90;;;;;;5070511;28;20040;-62
2022/11/18 10:18:43;;;;;;;22.98;12.80;;;6.10;99.90;;;;;;5071114;28;20404;-62
2022/11/18 10:21:11;;;;;;;26.55;12.40;;;6.10;99.90;;;;;;5071190;28;20079;-61
2022/11/18 10:24:19;;;;;;;25.88;13.45;;;6.10;99.90;;;;;;5071492;28;20044;-63
2022/11/18 10:26:45;;;;;;;21.23;12.15;;;6.10;99.90;;;;;;5053994;28;20053;-62
2022/11/18 10:29:11;;;;;;;24.63;14.23;;;6.20;99.90;;;;;;5071630;28;20094;-62
2022/11/18 10:32:00;;;;;;;23.63;13.65;;;6.10;99.90;;;;;;5071746;28;20037;-62
2022/11/18 10:34:26;;;;;;;26.13;14.20;;;6.10;99.90;;;;;;5071418;28;20055;-62
2022/11/18 10:36:59;;;;;;;24.20;13.48;;;6.00;99.90;;;;;;5064804;28;20036;-62
2022/11/18 10:39:24;;;;;;;25.50;14.05;;;6.00;99.90;;;;;;5061865;28;20079;-62
2022/11/18 10:41:52;;;;;;;27.77;14.48;;;6.00;99.90;;;;;;5063421;28;20036;-62
2022/11/18 10:44:38;;;;;;;24.63;13.35;;;6.10;99.90;;;;;;5047090;28;20047;-62
2022/11/18 10:47:22;;;;;;;23.00;12.70;;;6.00;99.90;;;;;;5070826;28;20495;-61
2022/11/18 10:49:49;;;;;;;25.70;14.07;;;6.00;99.90;;;;;;5070869;28;20044;-62
2022/11/18 10:52:14;;;;;;;24.17;12.90;;;6.00;99.90;;;;;;5071292;28;20443;-62
2022/11/18 10:54:41;;;;;;;22.95;12.52;;;6.00;99.90;;;;;;5071497;28;20043;-62
2022/11/18 10:57:09;;;;;;;23.40;13.32;;;6.00;99.90;;;;;;5065483;28;20040;-61
2022/11/18 10:59:39;;;;;;;23.92;12.52;;;5.90;99.90;;;;;;5050595;28;20394;-61
2022/11/18 11:02:29;;;;;;;20.50;12.07;;;5.90;99.90;;;;;;5051076;28;20044;-62
2022/11/18 11:04:57;;;;;;;25.27;11.70;;;6.00;99.90;;;;;;5050625;28;20132;-62
2022/11/18 11:07:25;;;;;;;21.35;12.02;;;5.80;99.90;;;;;;5050661;28;20119;-63
2022/11/18 11:10:03;;;;;;;25.67;12.20;;;5.70;99.90;;;;;;5050563;28;20045;-62
2022/11/18 11:12:37;;;;;;;27.30;14.02;;;5.70;99.90;;;;;;5051627;28;20119;-62
2022/11/18 11:15:31;;;;;;;22.88;12.65;;;5.80;99.90;;;;;;5059783;28;20076;-62
2022/11/18 11:18:42;;;;;;;26.13;12.75;;;5.80;99.90;;;;;;5061522;28;20036;-62
2022/11/18 11:20:51;;;;;;;26.27;13.35;;;5.60;99.90;;;;;;5044807;28;20053;-62
2022/11/18 11:23:17;;;;;;;26.30;13.85;;;5.80;99.90;;;;;;5037469;28;20055;-62
2022/11/18 11:25:56;;;;;;;23.50;12.18;;;5.60;99.90;;;;;;5053944;28;20061;-62
2022/11/18 11:28:43;;;;;;;25.45;12.95;;;5.50;99.90;;;;;;5032508;28;20053;-62
2022/11/18 11:31:28;;;;;;;21.65;13.07;;;5.60;99.90;;;;;;5055544;28;20048;-62
2022/11/18 11:34:18;;;;;;;22.90;12.55;;;5.70;99.90;;;;;;5064312;28;20041;-62
2022/11/18 11:36:53;;;;;;;21.08;11.60;;;5.50;99.90;;;;;;5070375;28;20090;-62
2022/11/18 11:39:24;;;;;;;23.83;12.40;;;5.50;99.90;;;;;;5070299;28;20063;-62
2022/11/18 11:42:25;;;;;;;21.92;11.90;;;5.50;99.90;;;;;;5070429;28;20054;-62
2022/11/18 11:45:15;;;;;;;23.50;11.82;;;5.50;99.90;;;;;;5071657;28;20040;-62
2022/11/18 11:48:10;;;;;;;22.92;12.35;;;5.60;99.90;;;;;;5070914;28;20036;-61
2022/11/18 11:50:59;;;;;;;25.35;12.70;;;5.60;99.90;;;;;;5007169;28;20046;-63
2022/11/18 11:53:55;;;;;;;23.63;11.85;;;5.60;99.90;;;;;;5044951;28;20102;-62
2022/11/18 11:56:37;;;;;;;24.40;13.15;;;5.50;99.90;;;;;;5063963;28;20033;-62
2022/11/18 11:59:14;;;;;;;25.15;13.32;;;5.50;99.90;;;;;;5064111;28;20087;-62
2022/11/18 12:02:27;;;;;;;23.50;13.77;;;5.40;99.90;;;;;;5055192;28;20063;-67
2022/11/18 12:05:22;;;;;;;23.63;13.50;;;5.50;99.90;;;;;;5007731;28;20044;-62
2022/11/18 12:07:55;;;;;;;26.88;13.50;;;5.30;99.90;;;;;;5074800;28;20044;-62
2022/11/18 12:10:23;;;;;;;27.90;15.38;;;5.40;99.90;;;;;;5056553;28;20043;-63
2022/11/18 12:13:00;;;;;;;30.92;14.80;;;5.20;99.90;;;;;;5074415;28;20040;-63
2022/11/18 12:15:39;;;;;;;27.75;14.82;;;5.30;99.90;;;;;;5074465;28;20116;-62
2022/11/18 12:18:23;;;;;;;26.00;14.43;;;5.30;99.90;;;;;;5074606;28;20040;-63
2022/11/18 12:20:50;;;;;;;30.92;16.10;;;5.20;99.90;;;;;;5074426;28;20068;-62
2022/11/18 12:23:21;;;;;;;30.55;16.15;;;5.30;99.90;;;;;;5074380;28;20094;-62
2022/11/18 12:25:51;;;;;;;29.58;15.02;;;5.20;99.90;;;;;;5073527;28;20044;-63
2022/11/18 12:28:28;;;;;;;31.63;15.57;;;5.30;99.90;;;;;;5074284;28;20088;-62
2022/11/18 12:31:19;;;;;;;28.73;14.38;;;5.10;99.90;;;;;;5074176;28;20519;-62
2022/11/18 12:33:47;;;;;;;29.30;14.90;;;5.00;99.90;;;;;;5074234;28;20051;-62
2022/11/18 12:36:28;;;;;;;27.63;15.63;;;5.00;99.90;;;;;;5073991;28;20041;-62
2022/11/18 12:38:55;;;;;;;29.30;15.43;;;5.20;99.90;;;;;;5074059;28;20398;-63
2022/11/18 12:44:27;;;;;;;28.33;13.57;;;5.00;99.90;;;;;;5070257;28;20055;-62
2022/11/18 12:46:57;;;;;;;28.85;14.45;;;4.90;99.90;;;;;;5056006;28;20048;-62
2022/11/18 12:49:25;;;;;;;29.35;14.25;;;5.10;99.90;;;;;;5065061;28;20051;-62
2022/11/18 12:51:52;;;;;;;25.75;14.80;;;5.00;99.90;;;;;;5064051;28;20039;-62
2022/11/18 12:54:37;;;;;;;25.58;13.90;;;5.10;99.90;;;;;;5045767;28;20044;-62
2022/11/18 12:57:32;;;;;;;26.08;13.68;;;5.10;99.90;;;;;;5063728;28;20087;-62
2022/11/18 13:00:14;;;;;;;26.15;13.95;;;5.10;99.90;;;;;;5062149;28;20049;-63
2022/11/18 13:02:54;;;;;;;26.08;13.27;;;4.90;99.90;;;;;;5064304;28;20092;-63
2022/11/18 13:05:27;;;;;;;27.00;13.45;;;5.10;99.90;;;;;;5064124;28;20037;-62
2022/11/18 13:08:13;;;;;;;22.73;12.75;;;5.10;99.90;;;;;;5062946;28;20037;-62
2022/11/18 13:19:27;;;;;;;21.67;12.18;;;4.90;99.90;;;;;;5072649;28;20051;-62
2022/11/18 13:24:47;;;;;;;25.42;13.23;;;4.90;99.90;;;;;;5072675;28;20044;-62
2022/11/18 13:27:41;;;;;;;24.30;12.68;;;5.10;99.90;;;;;;5072853;28;20037;-62
2022/11/18 13:30:12;;;;;;;23.02;12.50;;;4.90;99.90;;;;;;5038173;28;20051;-62
2022/11/18 13:32:43;;;;;;;25.63;13.10;;;4.90;99.90;;;;;;5055159;28;20097;-62
2022/11/18 13:35:18;;;;;;;25.33;13.07;;;4.90;99.90;;;;;;5073028;28;20044;-64
2022/11/18 13:37:49;;;;;;;25.60;13.73;;;4.80;99.90;;;;;;5072563;28;20036;-62
2022/11/18 13:40:25;;;;;;;25.67;13.45;;;4.80;99.90;;;;;;5072903;28;20044;-49
2022/11/18 13:42:51;;;;;;;25.60;14.13;;;4.70;99.90;;;;;;5072681;28;20047;-46
2022/11/18 13:45:17;;;;;;;26.35;13.13;;;4.80;99.90;;;;;;5072337;28;20373;-47
2022/11/18 13:47:49;;;;;;;25.90;14.45;;;4.80;99.90;;;;;;5054979;28;20061;-50
2022/11/18 13:50:34;;;;;;;25.08;13.65;;;4.80;99.90;;;;;;5072809;28;20041;-54
2022/11/18 13:53:04;;;;;;;24.83;14.00;;;4.80;99.90;;;;;;5072377;28;20032;-49